createdAt,value
2022-11-06T00:01:24.789Z,90.20
2022-11-06T00:03:55.128Z,90.20
2022-11-06T00:06:40.556Z,90.20
2022-11-06T00:09:10.624Z,90.20
2022-11-06T00:11:37.459Z,90.30
2022-11-06T00:14:04.739Z,90.30
2022-11-06T00:16:31.709Z,90.30
2022-11-06T00:19:02.408Z,90.30
2022-11-06T00:21:30.601Z,90.20
2022-11-06T00:23:59.869Z,90.30
2022-11-06T00:26:29.989Z,90.40
2022-11-06T00:28:57.122Z,90.40
2022-11-06T00:31:27.393Z,90.40
2022-11-06T00:33:55.707Z,90.40
2022-11-06T00:36:24.169Z,90.30
2022-11-06T00:38:55.423Z,90.20
2022-11-06T00:41:23.497Z,90.20
2022-11-06T00:43:52.516Z,90.30
2022-11-06T00:46:19.947Z,90.40
2022-11-06T00:48:47.062Z,90.40
2022-11-06T00:51:17.454Z,90.40
2022-11-06T00:53:45.140Z,90.40
2022-11-06T00:56:17.624Z,90.40
2022-11-06T00:58:45.403Z,90.50
2022-11-06T01:01:15.067Z,90.60
2022-11-06T01:03:43.818Z,90.60
2022-11-06T01:06:13.791Z,90.60
2022-11-06T01:08:41.332Z,90.70
2022-11-06T01:11:26.206Z,90.70
2022-11-06T01:13:55.806Z,90.80
2022-11-06T01:16:24.062Z,90.80
2022-11-06T01:18:51.352Z,90.70
2022-11-06T01:21:23.823Z,90.80
2022-11-06T01:24:01.206Z,90.80
2022-11-06T01:26:38.441Z,90.90
2022-11-06T01:29:08.810Z,90.80
2022-11-06T01:31:35.972Z,90.80
2022-11-06T01:34:03.677Z,90.90
2022-11-06T01:36:30.723Z,90.90
2022-11-06T01:38:59.859Z,90.90
2022-11-06T01:41:47.957Z,90.90
2022-11-06T01:44:14.707Z,90.90
2022-11-06T01:46:41.526Z,90.80
2022-11-06T01:49:16.661Z,90.80
2022-11-06T01:52:06.892Z,90.80
2022-11-06T01:54:36.547Z,90.90
2022-11-06T01:57:04.622Z,90.80
2022-11-06T01:59:34.082Z,90.80
2022-11-06T02:02:01.159Z,90.80
2022-11-06T02:04:32.718Z,90.80
2022-11-06T02:07:01.149Z,90.80
2022-11-06T02:09:30.516Z,90.80
2022-11-06T02:12:11.238Z,90.80
2022-11-06T02:14:50.891Z,90.80
2022-11-06T02:18:18.566Z,90.90
2022-11-06T02:21:18.698Z,91.00
2022-11-06T02:24:22.859Z,91.00
2022-11-06T02:27:18.247Z,91.00
2022-11-06T02:29:51.534Z,91.00
2022-11-06T02:32:27.776Z,91.00
2022-11-06T02:34:55.754Z,91.00
2022-11-06T02:37:29.455Z,91.00
2022-11-06T02:40:00.307Z,90.90
2022-11-06T02:42:29.666Z,90.80
2022-11-06T02:44:57.947Z,90.80
2022-11-06T02:47:28.559Z,90.80
2022-11-06T02:50:04.689Z,90.80
2022-11-06T02:52:45.382Z,90.70
2022-11-06T02:55:26.717Z,90.70
2022-11-06T02:57:59.947Z,90.70
2022-11-06T03:00:28.022Z,90.80
2022-11-06T03:03:23.712Z,90.80
2022-11-06T03:06:04.476Z,90.80
2022-11-06T03:08:38.638Z,90.80
2022-11-06T03:11:21.206Z,90.70
2022-11-06T03:13:51.990Z,90.70
2022-11-06T03:16:48.272Z,90.60
2022-11-06T03:19:18.127Z,90.60
2022-11-06T03:22:06.508Z,90.50
2022-11-06T03:24:43.021Z,90.50
2022-11-06T03:27:22.380Z,90.40
2022-11-06T03:29:55.452Z,90.50
2022-11-06T03:32:45.508Z,90.50
2022-11-06T03:35:37.131Z,90.50
2022-11-06T03:38:14.077Z,90.50
2022-11-06T03:40:47.061Z,90.50
2022-11-06T03:43:17.634Z,90.60
2022-11-06T03:45:46.750Z,90.50
2022-11-06T03:48:37.974Z,90.50
2022-11-06T03:51:19.537Z,90.50
2022-11-06T03:53:50.082Z,90.60
2022-11-06T03:56:26.504Z,90.70
2022-11-06T03:58:55.825Z,90.80
2022-11-06T04:01:29.097Z,90.80
2022-11-06T04:04:05.647Z,90.80
2022-11-06T04:06:57.897Z,90.80
2022-11-06T04:09:47.808Z,90.70
2022-11-06T04:12:38.022Z,90.80
2022-11-06T04:15:06.570Z,90.70
2022-11-06T04:17:33.775Z,90.70
2022-11-06T04:20:03.380Z,90.60
2022-11-06T04:22:47.801Z,90.60
2022-11-06T04:25:42.286Z,90.60
2022-11-06T04:28:24.279Z,90.70
2022-11-06T04:31:18.742Z,90.80
2022-11-06T04:34:04.406Z,90.70
2022-11-06T04:36:43.581Z,90.70
2022-11-06T04:39:25.768Z,90.80
2022-11-06T04:42:04.916Z,90.80
2022-11-06T04:44:40.011Z,90.80
2022-11-06T04:47:10.028Z,90.80
2022-11-06T04:49:40.649Z,90.80
2022-11-06T04:52:11.418Z,90.70
2022-11-06T04:54:38.727Z,90.70
2022-11-06T04:57:05.497Z,90.70
2022-11-06T04:59:36.891Z,90.60
2022-11-06T05:02:05.307Z,90.60
2022-11-06T05:04:32.666Z,90.60
2022-11-06T05:06:59.698Z,90.60
2022-11-06T05:09:26.492Z,90.50
2022-11-06T05:11:53.339Z,90.50
2022-11-06T05:14:20.312Z,90.50
2022-11-06T05:16:47.124Z,90.50
2022-11-06T05:19:13.933Z,90.50
2022-11-06T05:21:59.435Z,90.60
2022-11-06T05:24:26.222Z,90.70
2022-11-06T05:26:58.959Z,90.70
2022-11-06T05:29:26.587Z,90.70
2022-11-06T05:31:53.704Z,90.80
2022-11-06T05:34:21.369Z,90.80
2022-11-06T05:36:48.338Z,90.90
2022-11-06T05:39:15.133Z,90.90
2022-11-06T05:41:41.901Z,90.90
2022-11-06T05:44:08.812Z,90.80
2022-11-06T05:46:48.296Z,90.80
2022-11-06T05:49:15.871Z,90.80
2022-11-06T05:51:42.673Z,90.80
2022-11-06T05:54:09.475Z,90.80
2022-11-06T05:56:36.301Z,90.80
2022-11-06T05:59:03.184Z,90.70
2022-11-06T06:01:30.528Z,90.70
2022-11-06T06:03:57.512Z,90.70
2022-11-06T06:06:24.392Z,90.70
2022-11-06T06:08:51.147Z,90.80
2022-11-06T06:11:17.928Z,90.80
2022-11-06T06:13:44.766Z,90.80
2022-11-06T06:16:11.520Z,90.80
2022-11-06T06:18:38.379Z,90.80
2022-11-06T06:21:05.343Z,90.90
2022-11-06T06:23:32.114Z,90.90
2022-11-06T06:25:58.987Z,91.00
2022-11-06T06:28:25.814Z,91.00
2022-11-06T06:30:57.200Z,91.10
2022-11-06T06:33:27.010Z,91.20
2022-11-06T06:35:53.804Z,91.10
2022-11-06T06:38:20.630Z,91.10
2022-11-06T06:40:47.539Z,91.00
2022-11-06T06:43:14.368Z,91.00
2022-11-06T06:45:41.143Z,90.90
2022-11-06T06:48:08.229Z,90.90
2022-11-06T06:50:35.167Z,90.80
2022-11-06T06:53:02.152Z,90.80
2022-11-06T06:55:29.413Z,90.90
2022-11-06T06:58:00.806Z,90.90
2022-11-06T07:00:28.849Z,90.90
2022-11-06T07:02:58.513Z,90.80
2022-11-06T07:05:25.480Z,90.80
2022-11-06T07:07:52.271Z,90.80
2022-11-06T07:10:19.179Z,90.80
2022-11-06T07:12:45.952Z,90.60
2022-11-06T07:15:13.092Z,90.50
2022-11-06T07:17:39.891Z,90.40
2022-11-06T07:20:08.026Z,90.40
2022-11-06T07:22:37.339Z,90.30
2022-11-06T07:25:05.556Z,90.30
2022-11-06T07:27:32.451Z,90.30
2022-11-06T07:30:00.595Z,90.40
2022-11-06T07:32:27.822Z,90.40
2022-11-06T07:34:55.259Z,90.40
2022-11-06T07:37:22.253Z,90.50
2022-11-06T07:39:49.081Z,90.50
2022-11-06T07:42:15.854Z,90.40
2022-11-06T07:44:42.629Z,90.50
2022-11-06T07:47:09.391Z,90.40
2022-11-06T07:49:36.152Z,90.40
2022-11-06T07:52:04.614Z,90.40
2022-11-06T07:54:31.492Z,90.50
2022-11-06T07:56:58.245Z,90.60
2022-11-06T07:59:25.028Z,90.50
2022-11-06T08:01:52.382Z,90.50
2022-11-06T08:04:19.209Z,90.50
2022-11-06T08:06:46.044Z,90.50
2022-11-06T08:09:12.890Z,90.50
2022-11-06T08:11:39.737Z,90.50
2022-11-06T08:14:06.567Z,90.50
2022-11-06T08:16:33.483Z,90.30
2022-11-06T08:19:00.328Z,90.20
2022-11-06T08:21:27.379Z,90.20
2022-11-06T08:23:54.192Z,90.20
2022-11-06T08:26:20.966Z,90.20
2022-11-06T08:28:47.684Z,90.10
2022-11-06T08:31:14.471Z,90.00
2022-11-06T08:33:41.565Z,89.80
2022-11-06T08:36:09.526Z,90.00
2022-11-06T08:38:36.837Z,90.00
2022-11-06T08:41:08.724Z,89.80
2022-11-06T08:43:36.464Z,89.70
2022-11-06T08:46:08.126Z,89.70
2022-11-06T08:48:35.630Z,89.70
2022-11-06T08:51:05.009Z,89.60
2022-11-06T08:53:32.002Z,89.60
2022-11-06T08:55:59.001Z,89.50
2022-11-06T08:58:25.821Z,89.30
2022-11-06T09:00:52.620Z,89.20
2022-11-06T09:03:19.643Z,89.00
2022-11-06T09:05:46.780Z,89.10
2022-11-06T09:08:14.612Z,89.40
2022-11-06T09:10:42.787Z,89.70
2022-11-06T09:13:10.527Z,89.40
2022-11-06T09:15:38.324Z,89.60
2022-11-06T09:18:05.528Z,89.80
2022-11-06T09:20:32.274Z,89.70
2022-11-06T09:23:04.352Z,89.50
2022-11-06T09:25:31.692Z,89.20
2022-11-06T09:27:59.980Z,89.00
2022-11-06T09:30:29.544Z,89.20
2022-11-06T09:32:59.303Z,88.90
2022-11-06T09:35:27.862Z,88.60
2022-11-06T09:37:54.627Z,88.40
2022-11-06T09:40:34.443Z,88.60
2022-11-06T09:43:04.160Z,88.90
2022-11-06T09:45:33.568Z,88.80
2022-11-06T09:48:09.625Z,89.40
2022-11-06T09:50:41.811Z,89.30
2022-11-06T09:53:20.477Z,89.10
2022-11-06T09:55:49.508Z,89.30
2022-11-06T09:58:23.369Z,89.30
2022-11-06T10:00:54.877Z,89.10
2022-11-06T10:04:00.521Z,88.80
2022-11-06T10:06:28.729Z,89.00
2022-11-06T10:09:02.436Z,89.00
2022-11-06T10:11:35.799Z,89.10
2022-11-06T10:14:11.474Z,88.80
2022-11-06T10:16:47.296Z,88.90
2022-11-06T10:19:38.530Z,89.30
2022-11-06T10:22:08.133Z,88.50
2022-11-06T10:24:51.353Z,88.50
2022-11-06T10:27:25.943Z,89.10
2022-11-06T10:30:04.896Z,89.50
2022-11-06T10:32:49.716Z,89.70
2022-11-06T10:35:43.926Z,89.40
2022-11-06T10:38:17.302Z,88.80
2022-11-06T10:40:46.449Z,89.40
2022-11-06T10:43:13.166Z,89.20
2022-11-06T10:45:44.446Z,89.30
2022-11-06T10:48:32.502Z,89.20
2022-11-06T10:51:22.640Z,89.40
2022-11-06T10:54:10.550Z,89.40
2022-11-06T10:57:01.652Z,89.20
2022-11-06T10:59:28.749Z,89.00
2022-11-06T11:01:55.918Z,88.90
2022-11-06T11:04:22.849Z,88.70
2022-11-06T11:06:49.629Z,88.00
2022-11-06T11:09:27.399Z,88.20
2022-11-06T11:11:54.165Z,88.30
2022-11-06T11:14:26.638Z,88.30
2022-11-06T11:16:53.483Z,88.40
2022-11-06T11:19:41.206Z,88.10
2022-11-06T11:22:17.000Z,88.30
2022-11-06T11:25:25.647Z,88.10
2022-11-06T11:27:52.422Z,88.20
2022-11-06T11:30:26.542Z,88.10
2022-11-06T11:32:54.261Z,88.00
2022-11-06T11:35:28.684Z,88.10
2022-11-06T11:38:16.866Z,87.70
2022-11-06T11:40:43.895Z,87.70
2022-11-06T11:43:19.751Z,87.90
2022-11-06T11:46:05.025Z,87.60
2022-11-06T11:48:56.252Z,87.80
2022-11-06T11:51:44.937Z,87.20
2022-11-06T11:54:11.658Z,87.40
2022-11-06T11:57:08.801Z,87.30
2022-11-06T11:59:48.245Z,87.40
2022-11-06T12:02:23.596Z,88.00
2022-11-06T12:05:36.689Z,87.70
2022-11-06T12:08:04.783Z,88.30
2022-11-06T12:10:42.851Z,88.60
2022-11-06T12:13:23.821Z,88.20
2022-11-06T12:16:09.747Z,88.20
2022-11-06T12:18:45.315Z,87.90
2022-11-06T12:21:14.598Z,87.70
2022-11-06T12:24:01.221Z,87.00
2022-11-06T12:26:49.843Z,86.90
2022-11-06T12:29:22.085Z,86.20
2022-11-06T12:32:23.768Z,86.70
2022-11-06T12:34:59.748Z,87.10
2022-11-06T12:37:32.368Z,87.00
2022-11-06T12:40:25.186Z,85.90
2022-11-06T12:43:20.148Z,85.90
2022-11-06T12:45:56.104Z,86.00
2022-11-06T12:48:22.964Z,86.40
2022-11-06T12:51:25.298Z,85.80
2022-11-06T12:54:21.525Z,86.00
2022-11-06T12:57:17.460Z,86.10
2022-11-06T12:59:49.283Z,86.00
2022-11-06T13:02:43.421Z,85.90
2022-11-06T13:05:22.131Z,85.70
2022-11-06T13:08:03.983Z,86.00
2022-11-06T13:10:54.557Z,85.60
2022-11-06T13:13:27.268Z,85.70
2022-11-06T13:16:26.860Z,85.60
2022-11-06T13:19:00.800Z,85.90
2022-11-06T13:22:05.876Z,86.20
2022-11-06T13:24:40.100Z,86.00
2022-11-06T13:27:27.431Z,86.00
2022-11-06T13:30:01.637Z,85.30
2022-11-06T13:32:32.531Z,85.20
2022-11-06T13:35:00.598Z,85.20
2022-11-06T13:37:43.023Z,85.20
2022-11-06T13:40:25.342Z,85.20
2022-11-06T13:42:55.872Z,85.30
2022-11-06T13:45:24.109Z,85.20
2022-11-06T13:48:17.933Z,85.30
2022-11-06T13:51:29.915Z,85.40
2022-11-06T13:54:04.721Z,85.40
2022-11-06T13:57:02.746Z,85.60
2022-11-06T14:00:03.600Z,85.50
2022-11-06T14:02:59.402Z,85.30
2022-11-06T14:05:48.049Z,85.30
2022-11-06T14:08:35.096Z,85.40
2022-11-06T14:11:11.602Z,85.30
2022-11-06T14:13:39.068Z,85.40
2022-11-06T14:16:14.908Z,85.30
2022-11-06T14:18:42.560Z,85.20
2022-11-06T14:21:28.559Z,85.10
2022-11-06T14:24:05.809Z,85.10
2022-11-06T14:26:45.039Z,85.40
2022-11-06T14:29:27.315Z,85.40
2022-11-06T14:32:24.486Z,85.70
2022-11-06T14:34:51.297Z,85.80
2022-11-06T14:37:18.083Z,85.60
2022-11-06T14:39:57.002Z,85.90
2022-11-06T14:42:27.053Z,86.10
2022-11-06T14:45:08.939Z,86.20
2022-11-06T14:47:53.087Z,86.40
2022-11-06T14:50:19.883Z,86.30
2022-11-06T14:52:55.710Z,86.20
2022-11-06T14:55:43.911Z,86.30
2022-11-06T14:58:22.999Z,86.70
2022-11-06T15:00:49.744Z,87.20
2022-11-06T15:03:28.251Z,87.30
2022-11-06T15:06:01.709Z,87.20
2022-11-06T15:08:46.912Z,86.90
2022-11-06T15:11:29.041Z,87.10
2022-11-06T15:14:16.043Z,86.90
2022-11-06T15:17:10.318Z,86.50
2022-11-06T15:19:44.310Z,86.50
2022-11-06T15:22:40.442Z,86.40
2022-11-06T15:25:16.359Z,86.20
2022-11-06T15:28:13.882Z,86.30
2022-11-06T15:30:47.290Z,86.20
2022-11-06T15:33:25.300Z,86.20
2022-11-06T15:35:54.019Z,86.30
2022-11-06T15:38:25.191Z,86.60
2022-11-06T15:40:54.615Z,86.80
2022-11-06T15:43:26.663Z,86.90
2022-11-06T15:46:24.197Z,86.80
2022-11-06T15:49:14.519Z,86.60
2022-11-06T15:51:49.337Z,86.80
2022-11-06T15:54:36.059Z,86.70
2022-11-06T15:57:24.410Z,86.70
2022-11-06T15:59:51.362Z,86.70
2022-11-06T16:02:20.723Z,86.60
2022-11-06T16:04:49.126Z,86.50
2022-11-06T16:07:18.091Z,86.40
2022-11-06T16:09:46.140Z,86.40
2022-11-06T16:12:15.709Z,86.40
2022-11-06T16:14:46.697Z,86.50
2022-11-06T16:17:23.888Z,86.50
2022-11-06T16:19:52.577Z,86.40
2022-11-06T16:22:27.453Z,86.20
2022-11-06T16:25:00.566Z,86.00
2022-11-06T16:27:27.881Z,85.90
2022-11-06T16:30:01.083Z,85.70
2022-11-06T16:32:30.970Z,85.90
2022-11-06T16:35:00.057Z,85.60
2022-11-06T16:37:29.622Z,85.70
2022-11-06T16:39:59.450Z,85.80
2022-11-06T16:42:35.884Z,85.90
2022-11-06T16:45:17.786Z,85.80
2022-11-06T16:48:07.539Z,85.80
2022-11-06T16:50:53.124Z,85.90
2022-11-06T16:53:21.698Z,85.80
2022-11-06T16:56:06.614Z,85.60
2022-11-06T16:58:51.772Z,85.80
2022-11-06T17:01:20.798Z,86.00
2022-11-06T17:03:54.205Z,86.10
2022-11-06T17:06:32.338Z,85.90
2022-11-06T17:09:05.068Z,85.80
2022-11-06T17:11:34.920Z,85.70
2022-11-06T17:14:11.069Z,85.80
2022-11-06T17:16:47.161Z,85.60
2022-11-06T17:19:13.985Z,85.40
2022-11-06T17:21:40.783Z,85.40
2022-11-06T17:24:35.499Z,85.40
2022-11-06T17:26:55.515Z,85.50
2022-11-06T17:29:22.610Z,85.40
2022-11-06T17:31:51.903Z,85.30
2022-11-06T17:34:18.736Z,85.50
2022-11-06T17:36:45.507Z,85.50
2022-11-06T17:39:12.790Z,85.40
2022-11-06T17:41:39.561Z,85.60
2022-11-06T17:44:09.203Z,85.60
2022-11-06T17:46:38.795Z,85.50
2022-11-06T17:49:05.897Z,85.30
2022-11-06T17:51:53.091Z,85.30
2022-11-06T17:54:22.262Z,85.60
2022-11-06T17:56:53.628Z,85.30
2022-11-06T17:59:21.123Z,85.20
2022-11-06T18:01:50.365Z,85.00
2022-11-06T18:04:18.436Z,85.10
2022-11-06T18:06:46.816Z,85.30
2022-11-06T18:09:14.842Z,85.30
2022-11-06T18:11:42.930Z,85.00
2022-11-06T18:14:09.949Z,84.90
2022-11-06T18:16:43.703Z,84.30
2022-11-06T18:19:14.763Z,84.00
2022-11-06T18:21:41.598Z,84.30
2022-11-06T18:24:08.629Z,84.50
2022-11-06T18:26:37.306Z,84.40
2022-11-06T18:29:05.757Z,84.10
2022-11-06T18:31:33.181Z,83.90
2022-11-06T18:34:00.184Z,83.90
2022-11-06T18:36:27.116Z,84.00
2022-11-06T18:38:53.911Z,84.00
2022-11-06T18:41:22.041Z,84.30
2022-11-06T18:43:49.517Z,84.60
2022-11-06T18:46:18.816Z,84.80
2022-11-06T18:48:45.885Z,84.80
2022-11-06T18:51:32.643Z,84.80
2022-11-06T18:54:04.627Z,84.70
2022-11-06T18:56:32.217Z,84.50
2022-11-06T18:58:59.609Z,84.50
2022-11-06T19:01:26.573Z,84.40
2022-11-06T19:03:53.654Z,84.50
2022-11-06T19:06:21.382Z,84.50
2022-11-06T19:08:49.026Z,84.40
2022-11-06T19:11:18.087Z,84.40
2022-11-06T19:13:48.406Z,84.10
2022-11-06T19:16:18.601Z,83.70
2022-11-06T19:18:45.650Z,83.10
2022-11-06T19:21:13.404Z,83.20
2022-11-06T19:23:42.345Z,83.30
2022-11-06T19:26:30.495Z,83.60
2022-11-06T19:28:58.293Z,83.50
2022-11-06T19:31:29.232Z,83.50
2022-11-06T19:33:57.069Z,83.60
2022-11-06T19:36:25.219Z,83.50
2022-11-06T19:38:52.484Z,83.50
2022-11-06T19:41:19.606Z,83.10
2022-11-06T19:43:46.498Z,83.10
2022-11-06T19:46:13.281Z,83.30
2022-11-06T19:48:41.057Z,83.10
2022-11-06T19:51:13.425Z,83.20
2022-11-06T19:53:41.311Z,82.90
2022-11-06T19:56:10.220Z,83.30
2022-11-06T19:58:37.017Z,83.40
2022-11-06T20:01:13.106Z,83.40
2022-11-06T20:03:40.447Z,83.30
2022-11-06T20:06:08.282Z,83.50
2022-11-06T20:08:38.562Z,83.10
2022-11-06T20:11:07.507Z,83.20
2022-11-06T20:13:36.437Z,83.60
2022-11-06T20:16:09.317Z,83.80
2022-11-06T20:18:37.362Z,84.00
2022-11-06T20:21:07.505Z,84.20
2022-11-06T20:23:34.837Z,84.00
2022-11-06T20:26:01.984Z,84.50
2022-11-06T20:28:29.187Z,85.30
2022-11-06T20:30:56.594Z,86.50
2022-11-06T20:33:23.706Z,87.00
2022-11-06T20:35:50.575Z,88.00
2022-11-06T20:38:17.629Z,88.90
2022-11-06T20:40:45.228Z,89.70
2022-11-06T20:43:12.333Z,90.20
2022-11-06T20:45:39.923Z,90.50
2022-11-06T20:48:07.949Z,90.60
2022-11-06T20:50:34.984Z,90.80
2022-11-06T20:53:02.112Z,91.20
2022-11-06T20:55:29.149Z,91.40
2022-11-06T20:57:55.911Z,91.30
2022-11-06T21:00:22.847Z,91.40
2022-11-06T21:02:49.838Z,91.60
2022-11-06T21:05:16.807Z,91.60
2022-11-06T21:07:43.616Z,91.40
2022-11-06T21:10:12.015Z,91.20
2022-11-06T21:12:38.896Z,91.00
2022-11-06T21:15:06.315Z,90.90
2022-11-06T21:17:33.162Z,91.00
2022-11-06T21:20:00.088Z,91.00
2022-11-06T21:22:26.922Z,91.40
2022-11-06T21:24:53.762Z,91.50
2022-11-06T21:27:20.660Z,91.50
2022-11-06T21:29:47.495Z,91.70
2022-11-06T21:32:14.279Z,91.70
2022-11-06T21:34:41.040Z,91.70
2022-11-06T21:37:07.889Z,91.70
2022-11-06T21:39:36.463Z,91.80
2022-11-06T21:42:04.978Z,91.70
2022-11-06T21:44:32.131Z,91.80
2022-11-06T21:46:58.938Z,91.70
2022-11-06T21:49:25.728Z,91.70
2022-11-06T21:51:52.631Z,91.60
2022-11-06T21:54:38.178Z,91.50
2022-11-06T21:57:05.067Z,91.30
2022-11-06T21:59:31.876Z,90.70
2022-11-06T22:01:59.059Z,90.90
2022-11-06T22:04:26.019Z,90.90
2022-11-06T22:06:52.878Z,91.00
2022-11-06T22:09:24.872Z,91.00
2022-11-06T22:11:52.833Z,90.90
2022-11-06T22:14:19.699Z,90.90
2022-11-06T22:16:47.891Z,91.10
2022-11-06T22:19:16.090Z,91.20
2022-11-06T22:21:43.427Z,91.20
2022-11-06T22:24:12.450Z,91.20
2022-11-06T22:26:39.865Z,91.10
2022-11-06T22:29:10.417Z,91.10
2022-11-06T22:31:37.279Z,91.10
2022-11-06T22:34:04.068Z,91.10
2022-11-06T22:36:31.145Z,91.20
2022-11-06T22:39:00.660Z,91.10
2022-11-06T22:41:27.518Z,91.00
2022-11-06T22:43:58.802Z,91.10
2022-11-06T22:46:26.369Z,91.10
2022-11-06T22:48:53.804Z,91.10
2022-11-06T22:51:23.493Z,91.10
2022-11-06T22:53:50.534Z,91.20
2022-11-06T22:56:18.469Z,91.30
2022-11-06T22:58:45.730Z,91.20
2022-11-06T23:01:12.735Z,91.30
2022-11-06T23:03:40.065Z,91.00
2022-11-06T23:06:09.319Z,90.90
2022-11-06T23:08:44.234Z,90.90
2022-11-06T23:11:14.444Z,91.00
2022-11-06T23:13:41.275Z,91.00
2022-11-06T23:16:39.545Z,91.10
2022-11-06T23:19:06.999Z,91.30
2022-11-06T23:21:33.993Z,91.20
2022-11-06T23:24:01.037Z,91.20
2022-11-06T23:26:27.845Z,90.90
2022-11-06T23:28:56.097Z,90.90
2022-11-06T23:31:23.554Z,90.80
2022-11-06T23:33:50.409Z,90.80
2022-11-06T23:36:18.416Z,90.60
2022-11-06T23:38:45.337Z,90.50
2022-11-06T23:41:33.152Z,90.50
2022-11-06T23:44:01.083Z,90.60
2022-11-06T23:46:30.139Z,90.40
2022-11-06T23:48:57.560Z,90.40
2022-11-06T23:51:25.542Z,90.40
2022-11-06T23:53:53.255Z,90.50
2022-11-06T23:56:20.106Z,90.40
2022-11-06T23:58:46.946Z,90.40
